Time;durP1;ratioP1;P1;durP2;ratioP2;P2;SDS_P1;SDS_P2;PMS_P1;PMS_P2;Temp;Humidity;BMP_temperature;BMP_pressure;BME280_temperature;BME280_humidity;BME280_pressure;Samples;Min_cycle;Max_cycle;Signal;HPM_P1;HPM_P2
2021/08/06 00:01:56;;;;;;;6.72;2.90;;;;;;;;;;5075646;28;20115;-78
2021/08/06 00:04:22;;;;;;;5.90;3.28;;;;;;;;;;5077422;28;20036;-78
2021/08/06 00:06:47;;;;;;;5.35;2.83;;;;;;;;;;5076052;28;20068;-78
2021/08/06 00:09:13;;;;;;;4.93;3.13;;;;;;;;;;5059201;28;20490;-78
2021/08/06 00:11:38;;;;;;;3.83;2.58;;;;;;;;;;5059445;28;20070;-78
2021/08/06 00:14:05;;;;;;;4.68;2.30;;;;;;;;;;5076422;28;20379;-78
2021/08/06 00:16:31;;;;;;;3.58;2.83;;;;;;;;;;5059127;28;20040;-78
2021/08/06 00:18:56;;;;;;;2.30;2.10;;;;;;;;;;5059267;28;20043;-78
2021/08/06 00:21:22;;;;;;;7.10;2.50;;;;;;;;;;5093189;28;20440;-78
2021/08/06 00:23:48;;;;;;;2.08;1.88;;;;;;;;;;5077397;28;20036;-77
2021/08/06 00:26:13;;;;;;;4.10;2.13;;;;;;;;;;5076537;28;20040;-78
2021/08/06 00:28:39;;;;;;;6.68;2.20;;;;;;;;;;5075469;28;20406;-78
2021/08/06 00:31:07;;;;;;;2.75;2.53;;;;;;;;;;5058412;28;20467;-78
2021/08/06 00:33:33;;;;;;;3.03;2.13;;;;;;;;;;5092085;28;20028;-78
2021/08/06 00:36:00;;;;;;;3.70;2.25;;;;;;;;;;5075520;28;20489;-78
2021/08/06 00:38:28;;;;;;;3.15;2.08;;;;;;;;;;5075020;28;20036;-78
2021/08/06 00:40:54;;;;;;;4.10;2.13;;;;;;;;;;5092143;28;20793;-78
2021/08/06 00:43:20;;;;;;;5.70;2.22;;;;;;;;;;5094521;28;20113;-78
2021/08/06 00:45:46;;;;;;;3.60;2.00;;;;;;;;;;5096034;28;20075;-78
2021/08/06 00:48:18;;;;;;;6.78;2.40;;;;;;;;;;5079077;28;20035;-77
2021/08/06 00:50:43;;;;;;;7.47;2.33;;;;;;;;;;5096988;28;20032;-78
2021/08/06 00:53:12;;;;;;;8.77;2.55;;;;;;;;;;5095355;28;20028;-78
2021/08/06 00:55:38;;;;;;;2.60;2.33;;;;;;;;;;5095755;28;20028;-78
2021/08/06 00:58:16;;;;;;;5.10;2.65;;;;;;;;;;5080071;28;20028;-78
2021/08/06 01:00:48;;;;;;;3.15;2.50;;;;;;;;;;5095682;28;20032;-78
2021/08/06 01:03:26;;;;;;;5.93;2.80;;;;;;;;;;5095880;28;20031;-78
2021/08/06 01:06:10;;;;;;;6.25;3.20;;;;;;;;;;5079329;28;20032;-78
2021/08/06 01:08:49;;;;;;;9.30;3.40;;;;;;;;;;5078923;28;20099;-78
2021/08/06 01:11:21;;;;;;;8.48;3.90;;;;;;;;;;5079759;28;20050;-78
2021/08/06 01:13:55;;;;;;;6.20;4.00;;;;;;;;;;5115451;28;20110;-78
2021/08/06 01:16:32;;;;;;;5.40;3.75;;;;;;;;;;5098802;28;20054;-78
2021/08/06 01:19:23;;;;;;;4.78;3.60;;;;;;;;;;5100052;28;20034;-78
2021/08/06 01:21:56;;;;;;;10.02;3.70;;;;;;;;;;5099048;28;20082;-78
2021/08/06 01:24:23;;;;;;;12.88;4.10;;;;;;;;;;5098464;28;20126;-78
2021/08/06 01:26:55;;;;;;;5.75;4.10;;;;;;;;;;5115748;28;20046;-78
2021/08/06 01:29:21;;;;;;;12.45;4.63;;;;;;;;;;5098160;28;20034;-78
2021/08/06 01:31:50;;;;;;;6.72;3.97;;;;;;;;;;5115015;28;20169;-78
2021/08/06 01:34:21;;;;;;;10.70;3.80;;;;;;;;;;5115691;28;20042;-78
2021/08/06 01:36:47;;;;;;;6.93;3.75;;;;;;;;;;5115099;28;20042;-78
2021/08/06 01:39:19;;;;;;;9.88;4.10;;;;;;;;;;5114794;28;20027;-78
2021/08/06 01:41:58;;;;;;;9.90;3.90;;;;;;;;;;5114708;28;20081;-78
2021/08/06 01:44:51;;;;;;;6.63;4.03;;;;;;;;;;5097519;28;20392;-78
2021/08/06 01:47:39;;;;;;;4.47;3.42;;;;;;;;;;5097940;28;20484;-78
2021/08/06 01:50:14;;;;;;;25.40;4.32;;;;;;;;;;5098082;28;20028;-78
2021/08/06 01:52:47;;;;;;;6.25;4.32;;;;;;;;;;5096356;28;20035;-78
2021/08/06 01:55:16;;;;;;;10.98;4.72;;;;;;;;;;5096749;28;20032;-78
2021/08/06 01:57:48;;;;;;;8.13;4.72;;;;;;;;;;5097254;28;20020;-78
2021/08/06 02:00:15;;;;;;;9.43;4.38;;;;;;;;;;5113464;28;20516;-78
2021/08/06 02:02:44;;;;;;;11.70;4.43;;;;;;;;;;5114709;28;20028;-78
2021/08/06 02:05:15;;;;;;;5.45;4.43;;;;;;;;;;5113469;28;20119;-78
2021/08/06 02:07:42;;;;;;;6.47;4.15;;;;;;;;;;5096221;28;20028;-78
2021/08/06 02:10:10;;;;;;;4.50;3.90;;;;;;;;;;5099490;28;20028;-78
2021/08/06 02:12:37;;;;;;;13.35;4.00;;;;;;;;;;5104754;28;20485;-77
2021/08/06 02:15:08;;;;;;;10.05;4.45;;;;;;;;;;5097368;28;20043;-80
2021/08/06 02:17:36;;;;;;;5.25;4.07;;;;;;;;;;5081209;28;20024;-78
2021/08/06 02:20:13;;;;;;;4.55;3.90;;;;;;;;;;5098395;28;20031;-78
2021/08/06 02:22:45;;;;;;;8.45;4.43;;;;;;;;;;5082319;28;20027;-78
2021/08/06 02:25:14;;;;;;;8.43;4.28;;;;;;;;;;5081768;28;20063;-78
2021/08/06 02:27:40;;;;;;;6.75;4.32;;;;;;;;;;5098399;28;20043;-78
2021/08/06 02:30:11;;;;;;;6.85;4.10;;;;;;;;;;5098561;28;20032;-79
2021/08/06 02:32:42;;;;;;;17.42;4.30;;;;;;;;;;5083212;28;20058;-79
2021/08/06 02:35:09;;;;;;;12.05;4.45;;;;;;;;;;5099751;28;20059;-79
2021/08/06 02:37:38;;;;;;;8.18;4.47;;;;;;;;;;5099498;28;20062;-79
2021/08/06 02:40:05;;;;;;;6.70;4.18;;;;;;;;;;5083517;28;20039;-79
2021/08/06 02:42:34;;;;;;;9.55;4.70;;;;;;;;;;5100015;28;20035;-79
2021/08/06 02:45:00;;;;;;;13.88;5.10;;;;;;;;;;5083290;28;20481;-79
2021/08/06 02:47:26;;;;;;;21.48;5.10;;;;;;;;;;5083237;28;20443;-79
2021/08/06 02:49:52;;;;;;;8.95;5.20;;;;;;;;;;5100820;28;20032;-80
2021/08/06 02:52:17;;;;;;;10.88;5.72;;;;;;;;;;5081541;28;20032;-79
2021/08/06 02:54:43;;;;;;;7.47;4.82;;;;;;;;;;5100009;28;20104;-79
2021/08/06 02:57:08;;;;;;;9.85;5.60;;;;;;;;;;5100242;28;20031;-80
2021/08/06 02:59:34;;;;;;;14.75;5.43;;;;;;;;;;5099573;28;20020;-79
2021/08/06 03:02:00;;;;;;;7.55;5.95;;;;;;;;;;5082271;28;20046;-78
2021/08/06 03:04:26;;;;;;;5.68;5.07;;;;;;;;;;5081202;28;20027;-78
2021/08/06 03:06:52;;;;;;;8.75;5.72;;;;;;;;;;5078763;28;20036;-78
2021/08/06 03:09:20;;;;;;;7.93;5.43;;;;;;;;;;5078800;28;20035;-78
2021/08/06 03:11:47;;;;;;;11.00;5.72;;;;;;;;;;5093258;28;20044;-78
2021/08/06 03:14:13;;;;;;;16.67;6.03;;;;;;;;;;5075999;28;20028;-78
2021/08/06 03:16:40;;;;;;;8.20;5.72;;;;;;;;;;5061469;28;20036;-78
2021/08/06 03:19:05;;;;;;;12.40;5.95;;;;;;;;;;5077435;28;20033;-78
2021/08/06 03:21:32;;;;;;;6.00;4.90;;;;;;;;;;5059697;28;20503;-78
2021/08/06 03:23:57;;;;;;;11.70;6.18;;;;;;;;;;5077742;28;20159;-78
2021/08/06 03:26:23;;;;;;;6.32;5.45;;;;;;;;;;5077049;28;20051;-78
2021/08/06 03:28:52;;;;;;;5.85;4.72;;;;;;;;;;5061023;28;20033;-78
2021/08/06 03:31:18;;;;;;;17.55;4.90;;;;;;;;;;5076561;28;20405;-78
2021/08/06 03:33:44;;;;;;;5.15;4.65;;;;;;;;;;5076975;28;20028;-78
2021/08/06 03:36:12;;;;;;;5.10;4.45;;;;;;;;;;5060423;28;20036;-78
2021/08/06 03:38:38;;;;;;;4.78;3.90;;;;;;;;;;5076594;28;20486;-78
2021/08/06 03:41:04;;;;;;;6.38;4.43;;;;;;;;;;5060132;28;20044;-78
2021/08/06 03:43:30;;;;;;;8.82;4.88;;;;;;;;;;5076559;28;20032;-78
2021/08/06 03:45:56;;;;;;;13.68;4.80;;;;;;;;;;5077016;28;20505;-78
2021/08/06 03:48:22;;;;;;;12.45;4.68;;;;;;;;;;5059868;28;20032;-78
2021/08/06 03:50:48;;;;;;;8.98;4.95;;;;;;;;;;5060382;28;20040;-78
2021/08/06 03:53:14;;;;;;;7.75;5.93;;;;;;;;;;5060182;28;20115;-78
2021/08/06 03:55:40;;;;;;;13.63;5.93;;;;;;;;;;5076072;28;20113;-78
2021/08/06 03:58:06;;;;;;;35.03;6.80;;;;;;;;;;5059301;28;20051;-78
2021/08/06 04:00:35;;;;;;;9.10;6.05;;;;;;;;;;5076791;28;20036;-78
2021/08/06 04:03:00;;;;;;;9.90;5.82;;;;;;;;;;5076839;28;20028;-78
2021/08/06 04:05:27;;;;;;;9.18;4.28;;;;;;;;;;5059315;28;20044;-78
2021/08/06 04:07:52;;;;;;;11.73;5.18;;;;;;;;;;5058775;28;20128;-78
2021/08/06 04:10:23;;;;;;;7.85;5.55;;;;;;;;;;5059990;28;20032;-78
2021/08/06 04:12:50;;;;;;;10.45;5.13;;;;;;;;;;5086356;28;20073;-78
2021/08/06 04:15:17;;;;;;;7.00;5.50;;;;;;;;;;5079799;28;20028;-78
2021/08/06 04:17:43;;;;;;;11.38;5.90;;;;;;;;;;5079183;28;20508;-78
2021/08/06 04:20:09;;;;;;;7.22;5.70;;;;;;;;;;5096613;28;20028;-78
2021/08/06 04:22:35;;;;;;;8.90;5.60;;;;;;;;;;5079502;28;20028;-78
2021/08/06 04:25:01;;;;;;;13.35;5.53;;;;;;;;;;5079600;28;20119;-78
2021/08/06 04:27:26;;;;;;;19.25;5.97;;;;;;;;;;5079398;28;20035;-78
2021/08/06 04:29:52;;;;;;;5.97;5.32;;;;;;;;;;5078727;28;20032;-78
2021/08/06 04:32:17;;;;;;;8.73;5.80;;;;;;;;;;5097205;28;20044;-78
2021/08/06 04:34:43;;;;;;;9.20;6.20;;;;;;;;;;5078843;28;20042;-78
2021/08/06 04:37:09;;;;;;;7.03;6.22;;;;;;;;;;5078755;28;20036;-78
2021/08/06 04:39:35;;;;;;;16.02;6.90;;;;;;;;;;5095743;28;20053;-78
2021/08/06 04:42:00;;;;;;;9.40;6.25;;;;;;;;;;5075489;28;20036;-78
2021/08/06 04:44:26;;;;;;;12.07;5.85;;;;;;;;;;5058643;28;20378;-78
2021/08/06 04:46:51;;;;;;;21.13;10.27;;;;;;;;;;5058315;28;20405;-78
2021/08/06 04:49:17;;;;;;;6.68;5.97;;;;;;;;;;5074877;28;20044;-78
2021/08/06 04:51:42;;;;;;;7.68;6.18;;;;;;;;;;5058382;28;20065;-78
2021/08/06 04:54:08;;;;;;;7.30;6.50;;;;;;;;;;5058359;28;20056;-78
2021/08/06 04:56:34;;;;;;;6.93;6.18;;;;;;;;;;5075381;28;20060;-78
2021/08/06 04:58:59;;;;;;;9.93;5.95;;;;;;;;;;5058527;28;20025;-78
2021/08/06 05:01:26;;;;;;;8.70;6.13;;;;;;;;;;5058848;28;20066;-78
2021/08/06 05:03:52;;;;;;;10.65;6.45;;;;;;;;;;5075174;28;20036;-78
2021/08/06 05:06:18;;;;;;;9.77;5.97;;;;;;;;;;5058716;28;20120;-78
2021/08/06 05:08:48;;;;;;;7.03;5.90;;;;;;;;;;5058086;28;20111;-78
2021/08/06 05:11:15;;;;;;;6.40;5.68;;;;;;;;;;5058183;28;20033;-78
2021/08/06 05:13:41;;;;;;;6.57;5.88;;;;;;;;;;5092117;28;20550;-78
2021/08/06 05:16:07;;;;;;;6.78;5.90;;;;;;;;;;5079648;28;20035;-79
2021/08/06 05:18:34;;;;;;;7.20;5.88;;;;;;;;;;5079005;28;20039;-79
2021/08/06 05:21:00;;;;;;;7.18;6.03;;;;;;;;;;5078516;28;20074;-79
2021/08/06 05:23:27;;;;;;;8.73;5.90;;;;;;;;;;5078478;28;20120;-78
2021/08/06 05:25:53;;;;;;;20.70;6.07;;;;;;;;;;5095904;28;20072;-78
2021/08/06 05:28:18;;;;;;;6.70;5.43;;;;;;;;;;5095187;28;20691;-78
2021/08/06 05:30:44;;;;;;;6.70;5.38;;;;;;;;;;5095215;28;20028;-79
2021/08/06 05:33:09;;;;;;;6.25;5.43;;;;;;;;;;5094963;28;20044;-78
2021/08/06 05:35:35;;;;;;;7.35;5.38;;;;;;;;;;5094767;28;20036;-78
2021/08/06 05:38:02;;;;;;;7.95;5.63;;;;;;;;;;5094953;28;20457;-78
2021/08/06 05:40:27;;;;;;;6.25;5.05;;;;;;;;;;5094630;28;20032;-78
2021/08/06 05:42:56;;;;;;;10.68;6.05;;;;;;;;;;5083347;28;20470;-78
2021/08/06 05:45:24;;;;;;;7.13;5.65;;;;;;;;;;5073920;28;20029;-78
2021/08/06 05:47:53;;;;;;;6.47;5.82;;;;;;;;;;5058174;28;20032;-78
2021/08/06 05:50:27;;;;;;;6.70;5.75;;;;;;;;;;5058318;28;20036;-78
2021/08/06 05:52:54;;;;;;;6.68;5.97;;;;;;;;;;5057879;28;20029;-78
2021/08/06 05:55:20;;;;;;;6.90;6.18;;;;;;;;;;5074454;28;20107;-78
2021/08/06 05:57:53;;;;;;;6.90;6.20;;;;;;;;;;5058627;28;20043;-78
2021/08/06 06:00:19;;;;;;;6.57;5.97;;;;;;;;;;5074304;28;20032;-78
2021/08/06 06:02:53;;;;;;;7.25;6.25;;;;;;;;;;5075684;28;20059;-78
2021/08/06 06:05:57;;;;;;;7.55;6.75;;;;;;;;;;5053478;28;20033;-78
2021/08/06 06:08:24;;;;;;;7.55;6.55;;;;;;;;;;5036947;28;20061;-78
2021/08/06 06:10:50;;;;;;;7.93;6.03;;;;;;;;;;5068700;28;20079;-77
2021/08/06 06:13:17;;;;;;;14.00;7.10;;;;;;;;;;5055361;28;20050;-78
2021/08/06 06:15:42;;;;;;;7.60;6.80;;;;;;;;;;5071980;28;20029;-77
2021/08/06 06:18:09;;;;;;;8.30;6.32;;;;;;;;;;5072216;28;20170;-78
2021/08/06 06:20:35;;;;;;;7.78;6.97;;;;;;;;;;5055525;28;20032;-78
2021/08/06 06:23:01;;;;;;;7.93;6.00;;;;;;;;;;5072395;28;20498;-78
2021/08/06 06:25:27;;;;;;;7.07;5.65;;;;;;;;;;5056495;28;20036;-80
2021/08/06 06:28:02;;;;;;;6.78;5.53;;;;;;;;;;5074675;28;20036;-80
2021/08/06 06:30:34;;;;;;;5.55;5.05;;;;;;;;;;5059864;28;20589;-79
2021/08/06 06:33:02;;;;;;;5.90;5.10;;;;;;;;;;5059888;28;20056;-80
2021/08/06 06:35:29;;;;;;;5.50;4.88;;;;;;;;;;5077809;28;20067;-78
2021/08/06 06:37:56;;;;;;;5.85;4.95;;;;;;;;;;5076522;28;20067;-78
2021/08/06 06:40:23;;;;;;;4.78;4.38;;;;;;;;;;5080910;28;20496;-79
2021/08/06 06:42:51;;;;;;;5.90;5.30;;;;;;;;;;5093813;28;20032;-78
2021/08/06 06:45:19;;;;;;;8.32;5.00;;;;;;;;;;5063290;28;20032;-79
2021/08/06 06:47:47;;;;;;;5.15;4.43;;;;;;;;;;5094596;28;20036;-79
2021/08/06 06:50:15;;;;;;;5.20;4.70;;;;;;;;;;5075696;28;20398;-80
2021/08/06 06:52:42;;;;;;;6.57;5.43;;;;;;;;;;5074376;28;20060;-79
2021/08/06 06:55:10;;;;;;;6.88;5.30;;;;;;;;;;5093596;28;20035;-78
2021/08/06 06:57:46;;;;;;;7.32;4.97;;;;;;;;;;5080023;28;20559;-78
2021/08/06 07:00:13;;;;;;;5.18;4.68;;;;;;;;;;5081867;28;20032;-81
2021/08/06 07:02:40;;;;;;;7.72;5.28;;;;;;;;;;5080766;28;20397;-80
2021/08/06 07:05:07;;;;;;;6.10;4.82;;;;;;;;;;5082157;28;20029;-77
2021/08/06 07:07:32;;;;;;;5.55;4.50;;;;;;;;;;5080269;28;20033;-81
2021/08/06 07:09:57;;;;;;;7.57;4.68;;;;;;;;;;5099647;28;20115;-81
2021/08/06 07:12:23;;;;;;;9.13;4.20;;;;;;;;;;5100011;28;20035;-82
2021/08/06 07:14:48;;;;;;;4.00;3.60;;;;;;;;;;5098854;28;20074;-81
2021/08/06 07:17:14;;;;;;;4.97;3.95;;;;;;;;;;5082829;28;20028;-81
2021/08/06 07:19:39;;;;;;;10.45;4.53;;;;;;;;;;5099626;28;20123;-81
2021/08/06 07:22:05;;;;;;;7.20;4.25;;;;;;;;;;5099702;28;20109;-81
2021/08/06 07:24:31;;;;;;;5.63;4.05;;;;;;;;;;5099746;28;20399;-81
2021/08/06 07:26:57;;;;;;;6.05;4.10;;;;;;;;;;5082817;28;20066;-81
2021/08/06 07:29:23;;;;;;;5.38;4.25;;;;;;;;;;5083341;28;20036;-81
2021/08/06 07:31:48;;;;;;;6.30;4.05;;;;;;;;;;5082733;28;20405;-81
2021/08/06 07:34:14;;;;;;;4.15;3.63;;;;;;;;;;5099345;28;20119;-81
2021/08/06 07:36:40;;;;;;;11.70;4.03;;;;;;;;;;5082459;28;20032;-81
2021/08/06 07:39:06;;;;;;;5.43;3.90;;;;;;;;;;5081933;28;20032;-81
2021/08/06 07:41:32;;;;;;;6.10;3.67;;;;;;;;;;5082160;28;20474;-81
2021/08/06 07:43:58;;;;;;;4.80;3.70;;;;;;;;;;5098805;28;20039;-81
2021/08/06 07:46:24;;;;;;;6.97;3.25;;;;;;;;;;5082670;28;20035;-81
2021/08/06 07:48:51;;;;;;;3.60;3.00;;;;;;;;;;5082829;28;20118;-81
2021/08/06 07:51:16;;;;;;;10.05;4.05;;;;;;;;;;5082415;28;20035;-81
2021/08/06 07:53:43;;;;;;;3.95;3.28;;;;;;;;;;5099244;28;20063;-81
2021/08/06 07:56:11;;;;;;;5.03;4.00;;;;;;;;;;5082618;28;20032;-81
2021/08/06 07:58:37;;;;;;;5.63;4.00;;;;;;;;;;5082295;28;20040;-81
2021/08/06 08:01:02;;;;;;;6.38;3.55;;;;;;;;;;5098670;28;20035;-81
2021/08/06 08:03:27;;;;;;;4.10;3.42;;;;;;;;;;5082248;28;20382;-81
2021/08/06 08:05:54;;;;;;;3.58;3.08;;;;;;;;;;5098788;28;20028;-81
2021/08/06 08:08:19;;;;;;;4.63;3.20;;;;;;;;;;5098157;28;20032;-81
2021/08/06 08:10:45;;;;;;;7.47;3.80;;;;;;;;;;5080920;28;20070;-78
2021/08/06 08:13:16;;;;;;;5.47;3.20;;;;;;;;;;5081339;28;20119;-78
2021/08/06 08:15:46;;;;;;;3.78;3.22;;;;;;;;;;5096711;28;20043;-78
2021/08/06 08:18:12;;;;;;;5.95;3.70;;;;;;;;;;5096874;28;20024;-79
2021/08/06 08:20:38;;;;;;;5.30;3.20;;;;;;;;;;5079655;28;20043;-78
2021/08/06 08:23:04;;;;;;;5.00;3.63;;;;;;;;;;5079330;28;20397;-78
2021/08/06 08:25:30;;;;;;;4.55;3.03;;;;;;;;;;5096305;28;20093;-78
2021/08/06 08:27:56;;;;;;;5.28;3.33;;;;;;;;;;5079441;28;20040;-78
2021/08/06 08:30:22;;;;;;;5.70;3.38;;;;;;;;;;5079217;28;20028;-78
2021/08/06 08:32:48;;;;;;;5.30;2.90;;;;;;;;;;5079115;28;20081;-78
2021/08/06 08:35:13;;;;;;;5.32;3.28;;;;;;;;;;5096088;28;20436;-78
2021/08/06 08:37:39;;;;;;;5.95;3.47;;;;;;;;;;5079114;28;20505;-78
2021/08/06 08:40:06;;;;;;;4.55;2.70;;;;;;;;;;5079168;28;20036;-78
2021/08/06 08:42:35;;;;;;;4.50;3.20;;;;;;;;;;5096857;28;20054;-79
2021/08/06 08:45:01;;;;;;;4.88;3.00;;;;;;;;;;5096648;28;20032;-78
2021/08/06 08:47:31;;;;;;;4.32;2.72;;;;;;;;;;5079883;28;20071;-78
2021/08/06 08:49:56;;;;;;;3.60;2.55;;;;;;;;;;5079502;28;20189;-78
2021/08/06 08:52:22;;;;;;;6.78;2.75;;;;;;;;;;5096047;28;20082;-78
2021/08/06 08:54:48;;;;;;;2.78;2.35;;;;;;;;;;5079130;28;20123;-78
2021/08/06 08:57:22;;;;;;;3.38;2.65;;;;;;;;;;5080156;28;20043;-78
2021/08/06 08:59:48;;;;;;;2.53;2.13;;;;;;;;;;5079464;28;20026;-78
2021/08/06 09:02:15;;;;;;;5.18;2.40;;;;;;;;;;5079659;28;20533;-79
2021/08/06 09:04:43;;;;;;;2.15;1.92;;;;;;;;;;5096101;28;20032;-78
2021/08/06 09:07:09;;;;;;;2.80;2.50;;;;;;;;;;5095758;28;20493;-78
2021/08/06 09:10:11;;;;;;;2.50;1.77;;;;;;;;;;5097388;28;20107;-79
2021/08/06 09:13:01;;;;;;;2.90;1.83;;;;;;;;;;5098733;28;20090;-78
2021/08/06 09:15:54;;;;;;;5.88;2.13;;;;;;;;;;5080480;28;20028;-78
2021/08/06 09:18:28;;;;;;;5.13;1.80;;;;;;;;;;5099042;28;20035;-79
2021/08/06 09:21:22;;;;;;;2.60;1.80;;;;;;;;;;5081162;28;20036;-78
2021/08/06 09:23:55;;;;;;;2.08;1.58;;;;;;;;;;5079222;28;20471;-79
2021/08/06 09:26:27;;;;;;;7.43;1.80;;;;;;;;;;5097295;28;20127;-79
2021/08/06 09:29:05;;;;;;;5.25;1.55;;;;;;;;;;5096185;28;20036;-79
2021/08/06 09:31:32;;;;;;;1.88;1.30;;;;;;;;;;5098826;28;20496;-79
2021/08/06 09:34:12;;;;;;;2.58;1.17;;;;;;;;;;5080855;28;20050;-79
2021/08/06 09:36:38;;;;;;;2.72;1.10;;;;;;;;;;5080190;28;20054;-78
2021/08/06 09:39:14;;;;;;;1.20;1.10;;;;;;;;;;5080328;28;20028;-79
2021/08/06 09:41:44;;;;;;;1.25;1.15;;;;;;;;;;5099278;28;20032;-80
2021/08/06 09:44:21;;;;;;;2.80;1.30;;;;;;;;;;5100003;28;20032;-79
2021/08/06 09:46:47;;;;;;;1.25;1.10;;;;;;;;;;5081853;28;20081;-79
2021/08/06 09:49:14;;;;;;;2.05;1.30;;;;;;;;;;5097817;28;20032;-79
2021/08/06 09:51:42;;;;;;;1.63;1.05;;;;;;;;;;5080779;28;20169;-79
2021/08/06 09:54:19;;;;;;;2.55;1.40;;;;;;;;;;5081355;28;20492;-79
2021/08/06 09:56:46;;;;;;;1.50;1.40;;;;;;;;;;5097917;28;20040;-78
2021/08/06 09:59:12;;;;;;;2.67;1.55;;;;;;;;;;5080606;28;20028;-78
2021/08/06 10:01:37;;;;;;;3.83;1.40;;;;;;;;;;5096595;28;20500;-78
2021/08/06 10:04:14;;;;;;;1.83;1.23;;;;;;;;;;5096449;28;20500;-79
2021/08/06 10:06:55;;;;;;;3.78;1.35;;;;;;;;;;5096927;28;20032;-80
2021/08/06 10:09:21;;;;;;;0.90;0.90;;;;;;;;;;5097207;28;20039;-79
2021/08/06 10:11:47;;;;;;;1.63;1.13;;;;;;;;;;5081072;28;20036;-79
2021/08/06 10:14:12;;;;;;;3.80;0.90;;;;;;;;;;5119367;28;20027;-79
2021/08/06 10:16:38;;;;;;;1.25;0.90;;;;;;;;;;5117544;28;20092;-79
2021/08/06 10:19:04;;;;;;;2.22;1.00;;;;;;;;;;5101386;28;20034;-79
2021/08/06 10:21:29;;;;;;;2.67;0.90;;;;;;;;;;5100377;28;20544;-79
2021/08/06 10:23:55;;;;;;;2.83;0.90;;;;;;;;;;5099895;28;20042;-79
2021/08/06 10:26:21;;;;;;;2.05;0.90;;;;;;;;;;5119254;28;20024;-79
2021/08/06 10:28:46;;;;;;;2.60;0.50;;;;;;;;;;5100689;28;20043;-77
2021/08/06 10:31:20;;;;;;;1.55;0.60;;;;;;;;;;5118738;28;20036;-78
2021/08/06 10:34:11;;;;;;;1.77;0.63;;;;;;;;;;5121138;28;20046;-82
2021/08/06 10:36:47;;;;;;;0.70;0.40;;;;;;;;;;5123826;28;20103;-82
2021/08/06 10:39:30;;;;;;;;;;;;;;;;;;5108953;28;20435;-80
2021/08/06 10:41:57;;;;;;;5.03;0.65;;;;;;;;;;5107318;28;19934;-81
2021/08/06 10:44:22;;;;;;;0.40;0.40;;;;;;;;;;5104414;28;20031;-81
2021/08/06 10:46:57;;;;;;;0.63;0.57;;;;;;;;;;5106620;28;20032;-81
2021/08/06 10:49:25;;;;;;;1.02;0.32;;;;;;;;;;5107993;28;20032;-80
2021/08/06 10:52:17;;;;;;;1.00;0.57;;;;;;;;;;5104887;28;20032;-82
2021/08/06 10:54:43;;;;;;;1.35;0.50;;;;;;;;;;5097338;28;20531;-82
2021/08/06 10:57:16;;;;;;;0.45;0.45;;;;;;;;;;5080384;28;20032;-81
2021/08/06 10:59:42;;;;;;;1.55;0.38;;;;;;;;;;5080072;28;20028;-77
2021/08/06 11:02:42;;;;;;;0.73;0.40;;;;;;;;;;5096840;28;20036;-77
2021/08/06 11:05:29;;;;;;;0.88;0.28;;;;;;;;;;5096570;28;20155;-76
2021/08/06 11:07:55;;;;;;;0.80;0.30;;;;;;;;;;5095590;28;20102;-76
2021/08/06 11:10:42;;;;;;;1.45;0.55;;;;;;;;;;5095145;28;20036;-76
2021/08/06 11:13:34;;;;;;;1.35;0.63;;;;;;;;;;5095535;28;20060;-76
2021/08/06 11:16:09;;;;;;;1.35;0.30;;;;;;;;;;5096154;28;20039;-76
2021/08/06 11:18:40;;;;;;;1.10;0.40;;;;;;;;;;5096566;28;20114;-76
2021/08/06 11:21:06;;;;;;;0.47;0.40;;;;;;;;;;5094967;28;20035;-76
2021/08/06 11:23:32;;;;;;;0.50;0.50;;;;;;;;;;5096294;28;20489;-76
2021/08/06 11:26:11;;;;;;;0.40;0.40;;;;;;;;;;5096249;28;20547;-76
2021/08/06 11:28:36;;;;;;;0.20;0.20;;;;;;;;;;5094943;28;20043;-76
2021/08/06 11:31:19;;;;;;;1.58;0.82;;;;;;;;;;5096145;28;20370;-76
2021/08/06 11:33:57;;;;;;;0.32;0.32;;;;;;;;;;5094769;28;20047;-76
2021/08/06 11:36:22;;;;;;;0.93;0.57;;;;;;;;;;5077866;28;20130;-76
2021/08/06 11:38:47;;;;;;;0.73;0.40;;;;;;;;;;5078006;28;20120;-76
2021/08/06 11:41:13;;;;;;;0.40;0.40;;;;;;;;;;5093780;28;20064;-76
2021/08/06 11:43:38;;;;;;;3.72;0.57;;;;;;;;;;5094650;28;20047;-77
2021/08/06 11:46:12;;;;;;;2.65;0.43;;;;;;;;;;5094870;28;20484;-76
2021/08/06 11:48:48;;;;;;;0.30;0.30;;;;;;;;;;5095778;28;20039;-77
2021/08/06 11:51:14;;;;;;;1.65;0.50;;;;;;;;;;5095949;28;20047;-77
2021/08/06 11:53:40;;;;;;;0.65;0.40;;;;;;;;;;5094279;28;20054;-76
2021/08/06 11:56:20;;;;;;;3.92;0.70;;;;;;;;;;5094450;28;20473;-77
2021/08/06 11:58:46;;;;;;;0.30;0.30;;;;;;;;;;5095741;28;20055;-77
2021/08/06 12:01:20;;;;;;;0.45;0.30;;;;;;;;;;5094425;28;20101;-77
2021/08/06 12:03:51;;;;;;;2.53;1.13;;;;;;;;;;5095452;28;20500;-77
2021/08/06 12:06:18;;;;;;;0.75;0.50;;;;;;;;;;5094202;28;20401;-77
2021/08/06 12:08:45;;;;;;;0.45;0.32;;;;;;;;;;5095410;28;20052;-74
2021/08/06 12:11:14;;;;;;;0.80;0.50;;;;;;;;;;5077155;28;20040;-74
2021/08/06 12:13:48;;;;;;;1.45;0.52;;;;;;;;;;5111710;28;20063;-74
2021/08/06 12:16:21;;;;;;;1.92;0.40;;;;;;;;;;5114653;28;20362;-74
2021/08/06 12:19:00;;;;;;;1.35;0.43;;;;;;;;;;5097223;28;20050;-74
2021/08/06 12:21:29;;;;;;;0.50;0.50;;;;;;;;;;5115831;28;20377;-74
2021/08/06 12:24:00;;;;;;;0.40;0.30;;;;;;;;;;5115584;28;20031;-74
2021/08/06 12:26:34;;;;;;;1.02;0.60;;;;;;;;;;5115509;28;20047;-75
2021/08/06 12:29:15;;;;;;;1.70;0.60;;;;;;;;;;5115404;28;20031;-76
2021/08/06 12:31:59;;;;;;;1.10;0.55;;;;;;;;;;5101383;28;20400;-80
2021/08/06 12:34:27;;;;;;;1.35;0.43;;;;;;;;;;5101407;28;20096;-77
2021/08/06 12:37:12;;;;;;;2.70;0.70;;;;;;;;;;5115684;28;20032;-76
2021/08/06 12:39:46;;;;;;;2.63;0.50;;;;;;;;;;5114585;28;20039;-77
2021/08/06 12:42:24;;;;;;;1.17;0.73;;;;;;;;;;5110840;28;20028;-78
2021/08/06 12:45:19;;;;;;;0.45;0.30;;;;;;;;;;5093587;28;20039;-78
2021/08/06 12:47:50;;;;;;;1.13;0.40;;;;;;;;;;5095495;28;20043;-77
2021/08/06 12:50:23;;;;;;;0.88;0.50;;;;;;;;;;5093963;28;20039;-77
2021/08/06 12:53:10;;;;;;;1.98;0.55;;;;;;;;;;5094395;28;20032;-77
2021/08/06 12:55:37;;;;;;;1.38;0.80;;;;;;;;;;5093503;28;20054;-77
2021/08/06 12:58:17;;;;;;;1.52;0.80;;;;;;;;;;5094112;28;20028;-77
2021/08/06 13:00:51;;;;;;;0.52;0.40;;;;;;;;;;5076330;28;20061;-77
2021/08/06 13:03:22;;;;;;;2.60;0.30;;;;;;;;;;5095247;28;20044;-77
2021/08/06 13:05:50;;;;;;;0.32;0.32;;;;;;;;;;5093027;28;20059;-77
2021/08/06 13:08:28;;;;;;;1.33;0.50;;;;;;;;;;5092948;28;20040;-77
2021/08/06 13:11:11;;;;;;;0.93;0.52;;;;;;;;;;5093954;28;20032;-77
2021/08/06 13:13:44;;;;;;;0.65;0.40;;;;;;;;;;5075739;28;20074;-77
2021/08/06 13:16:13;;;;;;;0.57;0.35;;;;;;;;;;5092773;28;20032;-77
2021/08/06 13:18:38;;;;;;;0.85;0.65;;;;;;;;;;5094127;28;20034;-77
2021/08/06 13:21:04;;;;;;;1.20;0.40;;;;;;;;;;5093293;28;20028;-77
2021/08/06 13:23:30;;;;;;;0.45;0.45;;;;;;;;;;5094283;28;20036;-77
2021/08/06 13:25:55;;;;;;;1.10;0.52;;;;;;;;;;5096805;28;20099;-80
2021/08/06 13:28:21;;;;;;;1.25;0.68;;;;;;;;;;5097913;28;20036;-80
2021/08/06 13:30:47;;;;;;;1.65;0.55;;;;;;;;;;5098278;28;20036;-80
2021/08/06 13:33:12;;;;;;;1.60;0.70;;;;;;;;;;5096679;28;20141;-80
2021/08/06 13:35:38;;;;;;;1.55;0.50;;;;;;;;;;5096498;28;20035;-79
2021/08/06 13:38:04;;;;;;;1.73;0.93;;;;;;;;;;5080514;28;20034;-79
2021/08/06 13:40:31;;;;;;;1.33;0.93;;;;;;;;;;5090331;28;20063;-79
2021/08/06 13:42:57;;;;;;;1.60;0.70;;;;;;;;;;5061811;28;20071;-82
2021/08/06 13:45:24;;;;;;;3.55;0.90;;;;;;;;;;5079712;28;20032;-80
2021/08/06 13:47:49;;;;;;;3.67;0.82;;;;;;;;;;5078964;28;20037;-80
2021/08/06 13:50:15;;;;;;;2.25;0.60;;;;;;;;;;5077430;28;20029;-80
2021/08/06 13:52:41;;;;;;;1.35;0.60;;;;;;;;;;5078105;28;20036;-81
2021/08/06 13:55:07;;;;;;;1.45;0.60;;;;;;;;;;5061166;28;20036;-80
2021/08/06 13:57:34;;;;;;;3.10;1.02;;;;;;;;;;5079293;28;20033;-81
2021/08/06 14:00:00;;;;;;;1.00;0.70;;;;;;;;;;5061279;28;20074;-80
2021/08/06 14:02:26;;;;;;;2.25;1.15;;;;;;;;;;5078438;28;20033;-81
2021/08/06 14:04:51;;;;;;;2.05;0.88;;;;;;;;;;5059031;28;20121;-80
2021/08/06 14:07:17;;;;;;;2.25;0.85;;;;;;;;;;5060479;28;20055;-82
2021/08/06 14:09:44;;;;;;;2.35;1.35;;;;;;;;;;5082715;28;20032;-81
2021/08/06 14:12:10;;;;;;;1.08;0.70;;;;;;;;;;5121460;28;20051;-84
2021/08/06 14:14:36;;;;;;;1.30;0.80;;;;;;;;;;5120769;28;20035;-82
2021/08/06 14:17:02;;;;;;;2.60;1.10;;;;;;;;;;5119331;28;20035;-82
2021/08/06 14:19:28;;;;;;;1.48;1.00;;;;;;;;;;5101239;28;20027;-82
2021/08/06 14:21:54;;;;;;;2.58;1.00;;;;;;;;;;5103378;28;20032;-83
2021/08/06 14:24:20;;;;;;;1.55;1.00;;;;;;;;;;5101292;28;20406;-84
2021/08/06 14:26:46;;;;;;;1.63;1.00;;;;;;;;;;5100755;28;20096;-82
2021/08/06 14:29:13;;;;;;;3.13;1.10;;;;;;;;;;5117440;28;20028;-82
2021/08/06 14:31:38;;;;;;;0.82;0.70;;;;;;;;;;5100464;28;20073;-83
2021/08/06 14:34:04;;;;;;;2.95;1.10;;;;;;;;;;5118064;28;20031;-83
2021/08/06 14:36:31;;;;;;;1.70;1.10;;;;;;;;;;5100068;28;20073;-83
2021/08/06 14:38:57;;;;;;;4.40;1.05;;;;;;;;;;5116829;28;20032;-83
2021/08/06 14:41:23;;;;;;;2.58;0.98;;;;;;;;;;5067020;28;20461;-84
2021/08/06 14:43:48;;;;;;;1.80;1.30;;;;;;;;;;5080446;28;20413;-82
2021/08/06 14:46:14;;;;;;;2.45;0.90;;;;;;;;;;5076343;28;20505;-82
2021/08/06 14:48:39;;;;;;;2.33;0.68;;;;;;;;;;5076391;28;20397;-81
2021/08/06 14:51:04;;;;;;;2.03;0.90;;;;;;;;;;5078683;28;20045;-84
2021/08/06 14:53:30;;;;;;;1.02;0.80;;;;;;;;;;5078494;28;20046;-83